sensor_id;sensor_type;location;lat;lon;timestamp;noise_LAeq;noise_LA_min;noise_LA_max;noise_LA01;noise_LA95
64079;Laerm;51042;49.696;10.808;2023-04-07T00:00:47;41.30;38.99;43.52;;
64079;Laerm;51042;49.696;10.808;2023-04-07T00:03:12;50.56;38.40;67.66;;
64079;Laerm;51042;49.696;10.808;2023-04-07T00:05:38;55.66;38.19;74.76;;
64079;Laerm;51042;49.696;10.808;2023-04-07T00:08:03;43.54;38.83;59.04;;
64079;Laerm;51042;49.696;10.808;2023-04-07T00:10:28;41.18;38.69;44.16;;
64079;Laerm;51042;49.696;10.808;2023-04-07T00:12:54;41.58;39.25;43.86;;
64079;Laerm;51042;49.696;10.808;2023-04-07T00:15:19;41.60;39.80;47.79;;
64079;Laerm;51042;49.696;10.808;2023-04-07T00:17:45;51.73;39.71;68.17;;
64079;Laerm;51042;49.696;10.808;2023-04-07T00:20:11;41.78;39.50;43.70;;
64079;Laerm;51042;49.696;10.808;2023-04-07T00:22:36;41.76;39.58;46.97;;
64079;Laerm;51042;49.696;10.808;2023-04-07T00:25:01;41.49;39.19;43.50;;
64079;Laerm;51042;49.696;10.808;2023-04-07T00:27:27;42.13;38.66;49.97;;
64079;Laerm;51042;49.696;10.808;2023-04-07T00:29:52;49.85;39.39;65.75;;
64079;Laerm;51042;49.696;10.808;2023-04-07T00:32:20;41.64;39.14;46.53;;
64079;Laerm;51042;49.696;10.808;2023-04-07T00:34:45;41.64;38.86;50.96;;
64079;Laerm;51042;49.696;10.808;2023-04-07T00:37:10;41.80;38.57;57.02;;
64079;Laerm;51042;49.696;10.808;2023-04-07T00:39:36;42.05;39.79;44.16;;
64079;Laerm;51042;49.696;10.808;2023-04-07T00:42:02;41.98;39.65;44.08;;
64079;Laerm;51042;49.696;10.808;2023-04-07T00:44:28;53.72;39.46;71.96;;
64079;Laerm;51042;49.696;10.808;2023-04-07T00:46:53;42.28;40.11;46.72;;
64079;Laerm;51042;49.696;10.808;2023-04-07T00:49:19;42.54;40.03;49.14;;
64079;Laerm;51042;49.696;10.808;2023-04-07T00:51:45;42.34;39.67;49.07;;
64079;Laerm;51042;49.696;10.808;2023-04-07T00:54:10;42.08;39.69;44.13;;
64079;Laerm;51042;49.696;10.808;2023-04-07T00:56:36;42.30;39.39;53.06;;
64079;Laerm;51042;49.696;10.808;2023-04-07T00:59:03;41.03;38.50;43.47;;
64079;Laerm;51042;49.696;10.808;2023-04-07T01:01:34;41.04;38.59;43.52;;
64079;Laerm;51042;49.696;10.808;2023-04-07T01:04:10;41.47;39.10;43.77;;
64079;Laerm;51042;49.696;10.808;2023-04-07T01:06:43;42.15;38.64;44.46;;
64079;Laerm;51042;49.696;10.808;2023-04-07T01:09:36;42.34;39.81;44.32;;
64079;Laerm;51042;49.696;10.808;2023-04-07T01:12:17;42.13;39.15;44.24;;
64079;Laerm;51042;49.696;10.808;2023-04-07T01:14:50;42.19;39.79;46.68;;
64079;Laerm;51042;49.696;10.808;2023-04-07T01:17:18;52.32;39.46;73.51;;
64079;Laerm;51042;49.696;10.808;2023-04-07T01:19:48;41.92;39.32;46.76;;
64079;Laerm;51042;49.696;10.808;2023-04-07T01:22:21;45.45;38.87;63.99;;
64079;Laerm;51042;49.696;10.808;2023-04-07T01:30:48;41.39;39.22;43.43;;
64079;Laerm;51042;49.696;10.808;2023-04-07T01:33:15;41.63;39.33;43.78;;
64079;Laerm;51042;49.696;10.808;2023-04-07T01:35:42;41.86;39.59;45.91;;
64079;Laerm;51042;49.696;10.808;2023-04-07T01:38:08;42.15;40.18;46.73;;
64079;Laerm;51042;49.696;10.808;2023-04-07T01:40:36;42.77;39.92;49.83;;
64079;Laerm;51042;49.696;10.808;2023-04-07T01:43:05;41.77;39.81;43.81;;
64079;Laerm;51042;49.696;10.808;2023-04-07T01:45:33;42.15;39.89;47.47;;
64079;Laerm;51042;49.696;10.808;2023-04-07T01:47:59;42.80;39.18;49.82;;
64079;Laerm;51042;49.696;10.808;2023-04-07T01:50:26;41.26;39.11;43.60;;
64079;Laerm;51042;49.696;10.808;2023-04-07T01:52:54;42.13;39.31;50.13;;
64079;Laerm;51042;49.696;10.808;2023-04-07T01:55:20;42.01;39.40;47.32;;
64079;Laerm;51042;49.696;10.808;2023-04-07T01:57:45;42.42;39.56;46.52;;
64079;Laerm;51042;49.696;10.808;2023-04-07T02:00:11;42.50;39.97;52.68;;
64079;Laerm;51042;49.696;10.808;2023-04-07T02:02:40;42.80;40.26;48.40;;
64079;Laerm;51042;49.696;10.808;2023-04-07T02:05:08;53.98;40.00;71.42;;
64079;Laerm;51042;49.696;10.808;2023-04-07T02:07:41;42.21;39.95;44.43;;
64079;Laerm;51042;49.696;10.808;2023-04-07T02:10:10;53.18;40.17;76.82;;
64079;Laerm;51042;49.696;10.808;2023-04-07T02:12:37;42.37;39.87;51.98;;
64079;Laerm;51042;49.696;10.808;2023-04-07T02:15:05;42.31;39.66;51.18;;
64079;Laerm;51042;49.696;10.808;2023-04-07T02:17:32;42.42;39.23;53.36;;
64079;Laerm;51042;49.696;10.808;2023-04-07T02:20:00;47.15;39.91;62.54;;
64079;Laerm;51042;49.696;10.808;2023-04-07T02:22:27;55.43;39.18;74.27;;
64079;Laerm;51042;49.696;10.808;2023-04-07T02:24:53;41.69;38.97;50.25;;
64079;Laerm;51042;49.696;10.808;2023-04-07T02:27:18;41.58;38.96;50.38;;
64079;Laerm;51042;49.696;10.808;2023-04-07T02:29:44;50.09;39.00;67.45;;
64079;Laerm;51042;49.696;10.808;2023-04-07T02:32:10;49.46;39.23;65.03;;
64079;Laerm;51042;49.696;10.808;2023-04-07T02:34:35;41.75;39.19;45.64;;
64079;Laerm;51042;49.696;10.808;2023-04-07T02:37:01;41.89;39.56;45.31;;
64079;Laerm;51042;49.696;10.808;2023-04-07T02:39:27;42.16;39.61;46.69;;
64079;Laerm;51042;49.696;10.808;2023-04-07T02:41:52;52.44;39.70;72.73;;
64079;Laerm;51042;49.696;10.808;2023-04-07T02:44:18;46.48;39.54;60.64;;
64079;Laerm;51042;49.696;10.808;2023-04-07T02:46:43;44.11;39.88;57.52;;
64079;Laerm;51042;49.696;10.808;2023-04-07T02:49:08;43.32;39.35;55.64;;
64079;Laerm;51042;49.696;10.808;2023-04-07T02:51:34;41.79;39.54;44.50;;
64079;Laerm;51042;49.696;10.808;2023-04-07T02:53:59;50.24;39.47;65.87;;
64079;Laerm;51042;49.696;10.808;2023-04-07T02:56:24;51.14;39.75;71.38;;
64079;Laerm;51042;49.696;10.808;2023-04-07T02:58:50;42.41;39.47;51.09;;
64079;Laerm;51042;49.696;10.808;2023-04-07T03:01:15;48.59;39.01;67.45;;
64079;Laerm;51042;49.696;10.808;2023-04-07T03:03:40;49.66;39.91;65.48;;
64079;Laerm;51042;49.696;10.808;2023-04-07T03:06:08;49.36;39.54;66.71;;
64079;Laerm;51042;49.696;10.808;2023-04-07T03:08:34;52.75;39.59;68.85;;
64079;Laerm;51042;49.696;10.808;2023-04-07T03:10:59;52.73;39.50;69.70;;
64079;Laerm;51042;49.696;10.808;2023-04-07T03:13:25;46.28;39.84;64.99;;
64079;Laerm;51042;49.696;10.808;2023-04-07T03:15:50;42.55;39.67;49.12;;
64079;Laerm;51042;49.696;10.808;2023-04-07T03:18:15;42.42;39.42;48.14;;
64079;Laerm;51042;49.696;10.808;2023-04-07T03:20:41;42.79;39.50;50.59;;
64079;Laerm;51042;49.696;10.808;2023-04-07T03:23:07;43.71;39.80;51.90;;
64079;Laerm;51042;49.696;10.808;2023-04-07T03:25:32;51.12;39.64;65.91;;
64079;Laerm;51042;49.696;10.808;2023-04-07T03:27:57;43.10;39.63;52.28;;
64079;Laerm;51042;49.696;10.808;2023-04-07T03:30:23;58.98;40.80;74.94;;
64079;Laerm;51042;49.696;10.808;2023-04-07T03:32:49;50.24;39.80;67.98;;
64079;Laerm;51042;49.696;10.808;2023-04-07T03:35:14;45.48;39.57;63.00;;
64079;Laerm;51042;49.696;10.808;2023-04-07T03:37:39;43.79;39.08;52.40;;
64079;Laerm;51042;49.696;10.808;2023-04-07T03:40:05;43.05;39.33;53.69;;
64079;Laerm;51042;49.696;10.808;2023-04-07T03:42:30;42.85;39.10;51.82;;
64079;Laerm;51042;49.696;10.808;2023-04-07T03:44:56;51.62;39.16;70.50;;
64079;Laerm;51042;49.696;10.808;2023-04-07T03:47:21;46.83;39.44;61.14;;
64079;Laerm;51042;49.696;10.808;2023-04-07T03:49:46;42.43;39.96;47.64;;
64079;Laerm;51042;49.696;10.808;2023-04-07T03:52:12;46.21;39.67;57.87;;
64079;Laerm;51042;49.696;10.808;2023-04-07T03:54:37;46.94;39.99;58.59;;
64079;Laerm;51042;49.696;10.808;2023-04-07T03:57:02;47.78;39.56;61.17;;
64079;Laerm;51042;49.696;10.808;2023-04-07T03:59:28;61.45;39.40;79.03;;
64079;Laerm;51042;49.696;10.808;2023-04-07T04:01:53;48.55;39.80;65.29;;
64079;Laerm;51042;49.696;10.808;2023-04-07T04:04:19;63.69;41.17;74.84;;
64079;Laerm;51042;49.696;10.808;2023-04-07T04:06:44;59.20;40.41;71.51;;
64079;Laerm;51042;49.696;10.808;2023-04-07T04:09:09;58.13;39.70;72.61;;
64079;Laerm;51042;49.696;10.808;2023-04-07T04:11:35;47.14;39.67;57.36;;
64079;Laerm;51042;49.696;10.808;2023-04-07T04:14:00;63.70;39.38;75.86;;
64079;Laerm;51042;49.696;10.808;2023-04-07T04:16:26;44.90;39.19;55.37;;
64079;Laerm;51042;49.696;10.808;2023-04-07T04:18:51;47.12;38.44;61.13;;
64079;Laerm;51042;49.696;10.808;2023-04-07T04:21:16;49.93;39.17;67.48;;
64079;Laerm;51042;49.696;10.808;2023-04-07T04:23:42;56.53;38.81;74.30;;
64079;Laerm;51042;49.696;10.808;2023-04-07T04:26:07;54.04;39.57;67.70;;
64079;Laerm;51042;49.696;10.808;2023-04-07T04:28:32;57.86;39.64;71.11;;
64079;Laerm;51042;49.696;10.808;2023-04-07T04:30:57;56.10;40.23;74.00;;
64079;Laerm;51042;49.696;10.808;2023-04-07T04:33:23;57.29;39.72;74.99;;
64079;Laerm;51042;49.696;10.808;2023-04-07T04:35:48;53.57;40.29;70.50;;
64079;Laerm;51042;49.696;10.808;2023-04-07T04:38:14;53.71;39.98;71.65;;
64079;Laerm;51042;49.696;10.808;2023-04-07T04:40:39;60.12;39.78;77.26;;
64079;Laerm;51042;49.696;10.808;2023-04-07T04:43:05;56.79;40.16;78.03;;
64079;Laerm;51042;49.696;10.808;2023-04-07T04:45:32;56.65;40.18;74.08;;
64079;Laerm;51042;49.696;10.808;2023-04-07T04:47:57;58.17;40.02;75.02;;
64079;Laerm;51042;49.696;10.808;2023-04-07T04:50:22;54.36;39.55;73.55;;
64079;Laerm;51042;49.696;10.808;2023-04-07T04:52:47;55.12;38.96;75.53;;
64079;Laerm;51042;49.696;10.808;2023-04-07T04:55:13;56.39;39.64;75.13;;
64079;Laerm;51042;49.696;10.808;2023-04-07T04:57:38;56.51;39.79;75.85;;
64079;Laerm;51042;49.696;10.808;2023-04-07T05:00:05;53.64;39.93;71.35;;
64079;Laerm;51042;49.696;10.808;2023-04-07T05:02:31;54.73;39.95;70.60;;
64079;Laerm;51042;49.696;10.808;2023-04-07T05:04:57;49.18;40.01;69.89;;
64079;Laerm;51042;49.696;10.808;2023-04-07T05:07:23;53.88;39.96;68.31;;
64079;Laerm;51042;49.696;10.808;2023-04-07T05:09:48;49.63;39.64;64.85;;
64079;Laerm;51042;49.696;10.808;2023-04-07T05:12:14;52.56;39.75;68.07;;
64079;Laerm;51042;49.696;10.808;2023-04-07T05:14:40;44.89;39.59;61.52;;
64079;Laerm;51042;49.696;10.808;2023-04-07T05:17:05;47.54;39.83;64.08;;
64079;Laerm;51042;49.696;10.808;2023-04-07T05:19:30;51.18;39.91;66.95;;
64079;Laerm;51042;49.696;10.808;2023-04-07T05:21:56;50.89;39.35;68.66;;
64079;Laerm;51042;49.696;10.808;2023-04-07T05:24:22;43.67;39.10;60.76;;
64079;Laerm;51042;49.696;10.808;2023-04-07T05:26:47;53.56;39.45;70.21;;
64079;Laerm;51042;49.696;10.808;2023-04-07T05:29:12;53.14;40.22;71.98;;
64079;Laerm;51042;49.696;10.808;2023-04-07T05:31:38;58.71;40.48;72.04;;
64079;Laerm;51042;49.696;10.808;2023-04-07T05:34:04;54.92;39.24;71.17;;
64079;Laerm;51042;49.696;10.808;2023-04-07T05:36:29;57.50;39.42;73.44;;
64079;Laerm;51042;49.696;10.808;2023-04-07T05:38:55;53.67;39.84;73.78;;
64079;Laerm;51042;49.696;10.808;2023-04-07T05:41:21;50.66;39.56;66.50;;
64079;Laerm;51042;49.696;10.808;2023-04-07T05:43:46;53.67;39.55;68.94;;
64079;Laerm;51042;49.696;10.808;2023-04-07T05:46:11;42.66;39.03;55.74;;
64079;Laerm;51042;49.696;10.808;2023-04-07T05:48:37;51.94;39.56;69.44;;
64079;Laerm;51042;49.696;10.808;2023-04-07T05:51:02;50.85;39.62;69.37;;
64079;Laerm;51042;49.696;10.808;2023-04-07T05:53:27;50.00;39.54;72.98;;
64079;Laerm;51042;49.696;10.808;2023-04-07T05:55:53;52.09;39.56;69.45;;
64079;Laerm;51042;49.696;10.808;2023-04-07T05:58:18;56.34;39.28;72.18;;
64079;Laerm;51042;49.696;10.808;2023-04-07T06:00:44;51.57;39.16;68.76;;
64079;Laerm;51042;49.696;10.808;2023-04-07T06:03:09;55.19;39.97;72.34;;
64079;Laerm;51042;49.696;10.808;2023-04-07T06:05:35;54.92;39.42;74.06;;
64079;Laerm;51042;49.696;10.808;2023-04-07T06:08:00;51.85;39.65;73.59;;
64079;Laerm;51042;49.696;10.808;2023-04-07T06:10:26;46.92;40.06;66.97;;
64079;Laerm;51042;49.696;10.808;2023-04-07T06:12:51;45.64;40.34;62.49;;
64079;Laerm;51042;49.696;10.808;2023-04-07T06:15:16;52.56;39.65;70.50;;
64079;Laerm;51042;49.696;10.808;2023-04-07T06:17:42;52.29;39.15;70.10;;
64079;Laerm;51042;49.696;10.808;2023-04-07T06:20:10;51.21;39.21;68.28;;
64079;Laerm;51042;49.696;10.808;2023-04-07T06:22:35;54.37;39.64;72.51;;
64079;Laerm;51042;49.696;10.808;2023-04-07T06:25:01;56.07;39.34;71.78;;
64079;Laerm;51042;49.696;10.808;2023-04-07T06:27:26;52.63;40.15;67.50;;
64079;Laerm;51042;49.696;10.808;2023-04-07T06:29:51;56.93;39.62;71.10;;
64079;Laerm;51042;49.696;10.808;2023-04-07T06:32:16;46.73;39.88;65.39;;
64079;Laerm;51042;49.696;10.808;2023-04-07T06:34:43;59.24;40.73;73.20;;
64079;Laerm;51042;49.696;10.808;2023-04-07T06:37:08;58.74;40.25;74.09;;
64079;Laerm;51042;49.696;10.808;2023-04-07T06:39:33;54.21;39.52;68.63;;
64079;Laerm;51042;49.696;10.808;2023-04-07T06:41:59;56.59;39.21;70.37;;
64079;Laerm;51042;49.696;10.808;2023-04-07T06:44:25;53.74;39.73;71.14;;
64079;Laerm;51042;49.696;10.808;2023-04-07T06:46:51;52.84;39.26;68.34;;
64079;Laerm;51042;49.696;10.808;2023-04-07T06:49:18;48.66;39.66;64.02;;
64079;Laerm;51042;49.696;10.808;2023-04-07T06:51:43;56.10;39.84;73.89;;
64079;Laerm;51042;49.696;10.808;2023-04-07T06:54:09;55.34;39.23;71.25;;
64079;Laerm;51042;49.696;10.808;2023-04-07T06:56:41;56.05;39.60;71.04;;
64079;Laerm;51042;49.696;10.808;2023-04-07T06:59:07;54.01;39.24;70.64;;
64079;Laerm;51042;49.696;10.808;2023-04-07T07:01:33;58.29;39.41;73.64;;
64079;Laerm;51042;49.696;10.808;2023-04-07T07:03:58;55.74;39.48;70.62;;
64079;Laerm;51042;49.696;10.808;2023-04-07T07:06:25;55.72;38.75;71.54;;
64079;Laerm;51042;49.696;10.808;2023-04-07T07:08:51;54.44;38.48;73.55;;
64079;Laerm;51042;49.696;10.808;2023-04-07T07:11:17;56.81;39.38;71.45;;
64079;Laerm;51042;49.696;10.808;2023-04-07T07:13:42;45.57;39.06;57.35;;
64079;Laerm;51042;49.696;10.808;2023-04-07T07:16:09;54.36;39.48;68.33;;
64079;Laerm;51042;49.696;10.808;2023-04-07T07:18:34;53.77;39.10;70.16;;
64079;Laerm;51042;49.696;10.808;2023-04-07T07:21:01;59.96;40.14;74.06;;
64079;Laerm;51042;49.696;10.808;2023-04-07T07:23:26;48.92;40.11;63.30;;
64079;Laerm;51042;49.696;10.808;2023-04-07T07:25:51;54.57;38.81;70.97;;
64079;Laerm;51042;49.696;10.808;2023-04-07T07:28:17;57.16;37.96;69.99;;
64079;Laerm;51042;49.696;10.808;2023-04-07T07:30:42;57.14;38.30;71.75;;
64079;Laerm;51042;49.696;10.808;2023-04-07T07:33:07;58.80;38.55;75.28;;
64079;Laerm;51042;49.696;10.808;2023-04-07T07:35:33;53.70;38.18;70.99;;
64079;Laerm;51042;49.696;10.808;2023-04-07T07:37:58;57.45;38.66;73.35;;
64079;Laerm;51042;49.696;10.808;2023-04-07T07:40:23;55.53;39.08;70.97;;
64079;Laerm;51042;49.696;10.808;2023-04-07T07:42:49;55.06;38.88;71.67;;
64079;Laerm;51042;49.696;10.808;2023-04-07T07:45:14;42.37;38.38;57.24;;
64079;Laerm;51042;49.696;10.808;2023-04-07T07:47:41;51.56;38.98;66.46;;
64079;Laerm;51042;49.696;10.808;2023-04-07T07:50:07;57.83;39.96;71.52;;
64079;Laerm;51042;49.696;10.808;2023-04-07T07:52:32;58.93;38.72;76.30;;
64079;Laerm;51042;49.696;10.808;2023-04-07T07:54:58;57.10;38.13;70.00;;
64079;Laerm;51042;49.696;10.808;2023-04-07T07:57:23;56.53;40.34;69.55;;
64079;Laerm;51042;49.696;10.808;2023-04-07T07:59:48;54.48;38.60;73.32;;
64079;Laerm;51042;49.696;10.808;2023-04-07T08:02:14;54.68;38.50;68.91;;
64079;Laerm;51042;49.696;10.808;2023-04-07T08:04:39;55.06;38.59;70.61;;
64079;Laerm;51042;49.696;10.808;2023-04-07T08:07:04;55.44;39.18;69.76;;
64079;Laerm;51042;49.696;10.808;2023-04-07T08:09:30;55.55;39.27;70.26;;
64079;Laerm;51042;49.696;10.808;2023-04-07T08:11:58;54.43;38.60;69.21;;
64079;Laerm;51042;49.696;10.808;2023-04-07T08:14:23;58.90;39.37;71.09;;
64079;Laerm;51042;49.696;10.808;2023-04-07T08:16:49;53.68;39.33;70.43;;
64079;Laerm;51042;49.696;10.808;2023-04-07T08:19:14;55.15;38.36;72.68;;
64079;Laerm;51042;49.696;10.808;2023-04-07T08:21:40;67.28;38.61;88.38;;
64079;Laerm;51042;49.696;10.808;2023-04-07T08:24:06;57.79;39.29;70.91;;
64079;Laerm;51042;49.696;10.808;2023-04-07T08:26:32;57.14;37.58;73.22;;
64079;Laerm;51042;49.696;10.808;2023-04-07T08:28:57;60.09;38.51;84.23;;
64079;Laerm;51042;49.696;10.808;2023-04-07T08:31:23;60.08;38.55;75.40;;
64079;Laerm;51042;49.696;10.808;2023-04-07T08:33:48;59.53;39.13;71.82;;
64079;Laerm;51042;49.696;10.808;2023-04-07T08:36:18;54.63;39.09;71.18;;
64079;Laerm;51042;49.696;10.808;2023-04-07T08:38:43;54.56;38.90;68.86;;
64079;Laerm;51042;49.696;10.808;2023-04-07T08:41:11;56.60;38.48;72.34;;
64079;Laerm;51042;49.696;10.808;2023-04-07T08:43:38;53.12;38.64;67.26;;
64079;Laerm;51042;49.696;10.808;2023-04-07T08:46:04;58.01;38.64;74.28;;
64079;Laerm;51042;49.696;10.808;2023-04-07T08:48:31;58.91;38.98;70.92;;
64079;Laerm;51042;49.696;10.808;2023-04-07T08:51:04;58.22;39.58;77.15;;
64079;Laerm;51042;49.696;10.808;2023-04-07T08:53:35;61.38;38.71;78.57;;
64079;Laerm;51042;49.696;10.808;2023-04-07T08:56:03;61.12;38.62;74.68;;
64079;Laerm;51042;49.696;10.808;2023-04-07T08:58:30;56.87;38.90;69.71;;
64079;Laerm;51042;49.696;10.808;2023-04-07T09:00:56;59.62;38.81;72.84;;
64079;Laerm;51042;49.696;10.808;2023-04-07T09:03:25;58.55;39.43;73.29;;
64079;Laerm;51042;49.696;10.808;2023-04-07T09:05:51;59.97;39.12;73.51;;
64079;Laerm;51042;49.696;10.808;2023-04-07T09:08:16;56.26;38.82;71.42;;
64079;Laerm;51042;49.696;10.808;2023-04-07T09:10:41;51.27;38.65;66.20;;
64079;Laerm;51042;49.696;10.808;2023-04-07T09:13:07;60.15;40.74;72.69;;
64079;Laerm;51042;49.696;10.808;2023-04-07T09:15:32;56.62;38.55;71.86;;
64079;Laerm;51042;49.696;10.808;2023-04-07T09:17:58;57.96;37.87;75.14;;
64079;Laerm;51042;49.696;10.808;2023-04-07T09:20:23;52.34;38.18;68.41;;
64079;Laerm;51042;49.696;10.808;2023-04-07T09:22:49;58.47;38.42;72.97;;
64079;Laerm;51042;49.696;10.808;2023-04-07T09:25:22;58.02;38.70;70.82;;
64079;Laerm;51042;49.696;10.808;2023-04-07T09:28:01;59.29;38.94;74.45;;
64079;Laerm;51042;49.696;10.808;2023-04-07T09:30:28;60.63;41.31;76.26;;
64079;Laerm;51042;49.696;10.808;2023-04-07T09:32:54;59.22;39.89;71.29;;
64079;Laerm;51042;49.696;10.808;2023-04-07T09:35:19;59.71;40.14;75.42;;
64079;Laerm;51042;49.696;10.808;2023-04-07T09:38:00;50.54;38.88;64.58;;
64079;Laerm;51042;49.696;10.808;2023-04-07T09:40:26;56.12;39.13;70.57;;
64079;Laerm;51042;49.696;10.808;2023-04-07T09:42:52;53.23;39.13;70.87;;
64079;Laerm;51042;49.696;10.808;2023-04-07T09:45:27;59.08;37.91;72.31;;
64079;Laerm;51042;49.696;10.808;2023-04-07T09:47:53;57.40;37.94;71.57;;
64079;Laerm;51042;49.696;10.808;2023-04-07T09:50:37;59.17;37.74;73.34;;
64079;Laerm;51042;49.696;10.808;2023-04-07T09:53:03;57.64;38.76;73.19;;
64079;Laerm;51042;49.696;10.808;2023-04-07T09:55:29;58.31;37.83;75.12;;
64079;Laerm;51042;49.696;10.808;2023-04-07T09:57:54;54.26;39.10;68.50;;
64079;Laerm;51042;49.696;10.808;2023-04-07T10:00:20;55.54;39.89;68.62;;
64079;Laerm;51042;49.696;10.808;2023-04-07T10:02:45;56.62;39.85;71.58;;
64079;Laerm;51042;49.696;10.808;2023-04-07T10:05:12;57.96;40.64;72.02;;
64079;Laerm;51042;49.696;10.808;2023-04-07T10:07:37;59.44;39.90;72.49;;
64079;Laerm;51042;49.696;10.808;2023-04-07T10:10:03;52.35;38.86;66.73;;
64079;Laerm;51042;49.696;10.808;2023-04-07T10:12:33;57.70;39.38;75.73;;
64079;Laerm;51042;49.696;10.808;2023-04-07T10:14:59;58.52;39.66;73.11;;
64079;Laerm;51042;49.696;10.808;2023-04-07T10:17:27;59.65;38.34;72.56;;
64079;Laerm;51042;49.696;10.808;2023-04-07T10:19:53;54.84;38.56;69.00;;
64079;Laerm;51042;49.696;10.808;2023-04-07T10:22:21;58.04;38.12;72.28;;
64079;Laerm;51042;49.696;10.808;2023-04-07T10:24:59;62.62;38.68;82.15;;
64079;Laerm;51042;49.696;10.808;2023-04-07T10:27:31;59.83;39.52;75.67;;
64079;Laerm;51042;49.696;10.808;2023-04-07T10:29:59;59.68;40.07;78.30;;
64079;Laerm;51042;49.696;10.808;2023-04-07T10:32:25;58.84;39.74;71.31;;
64079;Laerm;51042;49.696;10.808;2023-04-07T10:37:18;55.89;39.03;71.94;;
64079;Laerm;51042;49.696;10.808;2023-04-07T10:39:46;57.37;39.36;80.92;;
64079;Laerm;51042;49.696;10.808;2023-04-07T10:45:02;59.83;38.92;77.82;;
64079;Laerm;51042;49.696;10.808;2023-04-07T10:47:27;49.42;39.14;63.48;;
64079;Laerm;51042;49.696;10.808;2023-04-07T10:52:39;58.71;39.53;72.15;;
64079;Laerm;51042;49.696;10.808;2023-04-07T10:55:27;58.20;40.26;76.39;;
64079;Laerm;51042;49.696;10.808;2023-04-07T11:03:33;61.34;39.15;79.35;;
64079;Laerm;51042;49.696;10.808;2023-04-07T11:06:06;60.91;40.33;75.56;;
64079;Laerm;51042;49.696;10.808;2023-04-07T11:11:05;62.98;40.63;80.46;;
64079;Laerm;51042;49.696;10.808;2023-04-07T11:13:45;62.63;39.81;81.01;;
64079;Laerm;51042;49.696;10.808;2023-04-07T11:16:11;54.66;39.91;68.86;;
64079;Laerm;51042;49.696;10.808;2023-04-07T11:18:37;56.57;39.35;71.56;;
64079;Laerm;51042;49.696;10.808;2023-04-07T11:21:04;55.90;39.25;72.40;;
64079;Laerm;51042;49.696;10.808;2023-04-07T11:23:40;52.08;40.24;69.25;;
64079;Laerm;51042;49.696;10.808;2023-04-07T11:26:06;62.99;40.86;81.16;;
64079;Laerm;51042;49.696;10.808;2023-04-07T11:28:32;61.70;41.38;77.57;;
64079;Laerm;51042;49.696;10.808;2023-04-07T11:30:58;55.39;40.47;67.38;;
64079;Laerm;51042;49.696;10.808;2023-04-07T11:33:29;55.84;40.11;76.53;;
64079;Laerm;51042;49.696;10.808;2023-04-07T11:35:56;55.31;39.41;68.98;;
64079;Laerm;51042;49.696;10.808;2023-04-07T11:38:27;54.91;39.61;68.79;;
64079;Laerm;51042;49.696;10.808;2023-04-07T11:40:54;56.66;39.64;77.50;;
64079;Laerm;51042;49.696;10.808;2023-04-07T11:43:25;54.15;39.45;67.88;;
64079;Laerm;51042;49.696;10.808;2023-04-07T11:46:11;57.92;40.15;75.31;;
64079;Laerm;51042;49.696;10.808;2023-04-07T11:48:38;51.36;40.00;68.91;;
64079;Laerm;51042;49.696;10.808;2023-04-07T11:51:05;55.61;40.48;71.94;;
64079;Laerm;51042;49.696;10.808;2023-04-07T11:53:35;56.64;40.62;72.63;;
64079;Laerm;51042;49.696;10.808;2023-04-07T11:56:08;54.07;40.78;66.81;;
64079;Laerm;51042;49.696;10.808;2023-04-07T11:58:35;56.81;40.92;73.61;;
64079;Laerm;51042;49.696;10.808;2023-04-07T12:01:02;59.99;40.07;74.43;;
64079;Laerm;51042;49.696;10.808;2023-04-07T12:03:31;61.14;39.83;79.82;;
64079;Laerm;51042;49.696;10.808;2023-04-07T12:05:58;57.53;40.10;69.90;;
64079;Laerm;51042;49.696;10.808;2023-04-07T12:08:42;56.96;40.57;71.51;;
64079;Laerm;51042;49.696;10.808;2023-04-07T12:11:09;58.68;41.45;71.90;;
64079;Laerm;51042;49.696;10.808;2023-04-07T12:13:37;58.03;41.44;72.43;;
64079;Laerm;51042;49.696;10.808;2023-04-07T12:16:03;55.57;40.02;72.81;;
64079;Laerm;51042;49.696;10.808;2023-04-07T12:18:28;58.08;41.15;73.31;;
64079;Laerm;51042;49.696;10.808;2023-04-07T12:20:54;58.81;40.53;71.48;;
64079;Laerm;51042;49.696;10.808;2023-04-07T12:23:21;58.58;40.81;74.95;;
64079;Laerm;51042;49.696;10.808;2023-04-07T12:25:46;56.47;40.68;72.30;;
64079;Laerm;51042;49.696;10.808;2023-04-07T12:28:11;58.97;41.26;74.22;;
64079;Laerm;51042;49.696;10.808;2023-04-07T12:30:37;56.32;40.25;69.94;;
64079;Laerm;51042;49.696;10.808;2023-04-07T12:33:02;60.36;41.98;71.59;;
64079;Laerm;51042;49.696;10.808;2023-04-07T12:35:28;57.42;41.50;71.09;;
64079;Laerm;51042;49.696;10.808;2023-04-07T12:37:54;57.83;40.35;73.05;;
64079;Laerm;51042;49.696;10.808;2023-04-07T12:40:21;65.20;40.39;84.73;;
64079;Laerm;51042;49.696;10.808;2023-04-07T12:42:46;58.40;41.66;72.39;;
64079;Laerm;51042;49.696;10.808;2023-04-07T12:45:12;56.03;40.51;71.52;;
64079;Laerm;51042;49.696;10.808;2023-04-07T12:47:37;59.02;42.21;73.17;;
64079;Laerm;51042;49.696;10.808;2023-04-07T12:50:03;56.51;40.25;70.17;;
64079;Laerm;51042;49.696;10.808;2023-04-07T12:52:28;53.88;40.26;65.92;;
64079;Laerm;51042;49.696;10.808;2023-04-07T12:54:53;54.84;40.45;69.98;;
64079;Laerm;51042;49.696;10.808;2023-04-07T12:57:19;57.15;39.48;73.08;;
64079;Laerm;51042;49.696;10.808;2023-04-07T12:59:44;58.41;40.66;73.20;;
64079;Laerm;51042;49.696;10.808;2023-04-07T13:02:10;57.44;41.16;68.83;;
64079;Laerm;51042;49.696;10.808;2023-04-07T13:04:37;58.63;40.32;70.20;;
64079;Laerm;51042;49.696;10.808;2023-04-07T13:07:04;54.47;39.72;67.48;;
64079;Laerm;51042;49.696;10.808;2023-04-07T13:09:30;56.19;41.15;68.28;;
64079;Laerm;51042;49.696;10.808;2023-04-07T13:11:55;60.78;41.11;76.86;;
64079;Laerm;51042;49.696;10.808;2023-04-07T13:14:21;55.01;40.75;71.05;;
64079;Laerm;51042;49.696;10.808;2023-04-07T13:16:47;62.17;40.95;80.13;;
64079;Laerm;51042;49.696;10.808;2023-04-07T13:19:12;61.33;40.58;81.93;;
64079;Laerm;51042;49.696;10.808;2023-04-07T13:21:38;54.80;40.15;71.14;;
64079;Laerm;51042;49.696;10.808;2023-04-07T13:24:03;56.81;40.38;71.13;;
64079;Laerm;51042;49.696;10.808;2023-04-07T13:26:28;48.96;39.60;64.15;;
64079;Laerm;51042;49.696;10.808;2023-04-07T13:28:53;53.74;40.68;68.49;;
64079;Laerm;51042;49.696;10.808;2023-04-07T13:31:19;57.13;40.09;73.12;;
64079;Laerm;51042;49.696;10.808;2023-04-07T13:33:46;55.15;40.64;68.65;;
64079;Laerm;51042;49.696;10.808;2023-04-07T13:36:11;58.49;41.63;71.49;;
64079;Laerm;51042;49.696;10.808;2023-04-07T13:38:36;59.11;41.13;72.90;;
64079;Laerm;51042;49.696;10.808;2023-04-07T13:41:02;55.93;40.28;71.87;;
64079;Laerm;51042;49.696;10.808;2023-04-07T13:43:28;56.67;40.32;68.58;;
64079;Laerm;51042;49.696;10.808;2023-04-07T13:45:53;49.05;40.27;63.78;;
64079;Laerm;51042;49.696;10.808;2023-04-07T13:48:20;57.24;39.87;71.31;;
64079;Laerm;51042;49.696;10.808;2023-04-07T13:50:45;52.47;39.97;70.64;;